地図

経路データ

SID SEASON NUMBER BASIN SUBBASIN NAME ISO_TIME NATURE LAT LON WMO_WIND WMO_PRES WMO_AGENCY TRACK_TYPE DIST2LAND LANDFALL IFLAG USA_AGENCY USA_ATCF_ID USA_LAT USA_LON USA_RECORD USA_STATUS USA_WIND USA_PRES USA_SSHS USA_R34_NE USA_R34_SE USA_R34_SW USA_R34_NW USA_R50_NE USA_R50_SE USA_R50_SW USA_R50_NW USA_R64_NE USA_R64_SE USA_R64_SW USA_R64_NW USA_POCI USA_ROCI USA_RMW USA_EYE TOKYO_LAT TOKYO_LON TOKYO_GRADE TOKYO_WIND TOKYO_PRES TOKYO_R50_DIR TOKYO_R50_LONG TOKYO_R50_SHORT TOKYO_R30_DIR TOKYO_R30_LONG TOKYO_R30_SHORT TOKYO_LAND CMA_LAT CMA_LON CMA_CAT CMA_WIND CMA_PRES HKO_LAT HKO_LON HKO_CAT HKO_WIND HKO_PRES NEWDELHI_LAT NEWDELHI_LON NEWDELHI_GRADE NEWDELHI_WIND NEWDELHI_PRES NEWDELHI_CI NEWDELHI_DP NEWDELHI_POCI REUNION_LAT REUNION_LON REUNION_TYPE REUNION_WIND REUNION_PRES REUNION_TNUM REUNION_CI REUNION_RMW REUNION_R34_NE REUNION_R34_SE REUNION_R34_SW REUNION_R34_NW REUNION_R50_NE REUNION_R50_SE REUNION_R50_SW REUNION_R50_NW REUNION_R64_NE REUNION_R64_SE REUNION_R64_SW REUNION_R64_NW BOM_LAT BOM_LON BOM_TYPE BOM_WIND BOM_PRES BOM_TNUM BOM_CI BOM_RMW BOM_R34_NE BOM_R34_SE BOM_R34_SW BOM_R34_NW BOM_R50_NE BOM_R50_SE BOM_R50_SW BOM_R50_NW BOM_R64_NE BOM_R64_SE BOM_R64_SW BOM_R64_NW BOM_ROCI BOM_POCI BOM_EYE BOM_POS_METHOD BOM_PRES_METHOD NADI_LAT NADI_LON NADI_CAT NADI_WIND NADI_PRES WELLINGTON_LAT WELLINGTON_LON WELLINGTON_WIND WELLINGTON_PRES DS824_LAT DS824_LON DS824_STAGE DS824_WIND DS824_PRES TD9636_LAT TD9636_LON TD9636_STAGE TD9636_WIND TD9636_PRES TD9635_LAT TD9635_LON TD9635_WIND TD9635_PRES TD9635_ROCI NEUMANN_LAT NEUMANN_LON NEUMANN_CLASS NEUMANN_WIND NEUMANN_PRES MLC_LAT MLC_LON MLC_CLASS MLC_WIND MLC_PRES USA_GUST BOM_GUST BOM_GUST_PER REUNION_GUST REUNION_GUST_PER USA_SEAHGT USA_SEARAD_NE USA_SEARAD_SE USA_SEARAD_SW USA_SEARAD_NW STORM_SPEED STORM_DIR
1978266N14260 1978 98 EP MM PAUL 1978-09-23 00:00:00 TS 14.1000 -100.500 30 hurdat_epa main 303 268 O________OO___ hurdat_epa EP161978 14.1000 -100.500 TD 30 -1 14.1000 -100.500 TC 30 14.1000 -100.500 1 30 10 332
1978266N14260 1978 98 EP MM PAUL 1978-09-23 03:00:00 TS 14.5192 -100.727 main 268 248 P________PP___ EP161978 14.5474 -100.700 TD 30 -1 14.5474 -100.700 TC 30 14.4063 -100.834 1 30 9 326
1978266N14260 1978 98 EP MM PAUL 1978-09-23 06:00:00 TS 14.8620 -101.037 30 hurdat_epa main 244 243 O________OP___ hurdat_epa EP161978 14.9000 -101.000 TD 30 -1 14.9000 -101.000 TC 30 14.7100 -101.185 1 30 9 308
1978266N14260 1978 98 EP MM PAUL 1978-09-23 09:00:00 TS 15.0878 -101.484 main 246 239 P________PP___ EP161978 15.1076 -101.463 TD 30 -1 15.1076 -101.463 TC 30 15.0087 -101.568 1 30 10 295
1978266N14260 1978 98 EP MM PAUL 1978-09-23 12:00:00 TS 15.3000 -102.000 30 hurdat_epa main 243 233 O________OO___ hurdat_epa EP161978 15.3000 -102.000 TD 30 -1 15.3000 -102.000 TC 30 15.3000 -102.000 1 30 11 299
1978266N14260 1978 98 EP MM PAUL 1978-09-23 15:00:00 TS 15.6363 -102.492 main 241 225 P________PP___ EP161978 15.6498 -102.492 TD 30 -1 15.6498 -102.492 TC 30 15.5824 -102.490 1 30 12 305
1978266N14260 1978 98 EP MM PAUL 1978-09-23 18:00:00 TS 15.9716 -103.004 30 hurdat_epa main 225 221 O________OP___ hurdat_epa EP161978 16.0000 -103.000 TD 30 -1 16.0000 -103.000 TC 30 15.8578 -103.020 1 30 12 298
1978266N14260 1978 98 EP MM PAUL 1978-09-23 21:00:00 TS 16.1919 -103.559 main 225 218 P________PP___ EP161978 16.2075 -103.558 TD 30 -1 16.2075 -103.558 TC 30 16.1292 -103.565 1 30 11 292
1978266N14260 1978 98 EP MM PAUL 1978-09-24 00:00:00 TS 16.4000 -104.100 30 hurdat_epa main 221 208 O________OO___ hurdat_epa EP161978 16.4000 -104.100 TD 30 -1 16.4000 -104.100 TC 30 16.4000 -104.100 1 30 11 297
1978266N14260 1978 98 EP MM PAUL 1978-09-24 03:00:00 TS 16.6895 -104.563 main 213 208 P________PP___ EP161978 16.6922 -104.558 TD 30 -1 16.6922 -104.558 TC 30 16.6785 -104.586 1 30 11 304
1978266N14260 1978 98 EP MM PAUL 1978-09-24 06:00:00 TS 16.9913 -105.012 30 hurdat_epa main 215 215 O________OP___ hurdat_epa EP161978 17.0000 -105.000 TD 30 -1 17.0000 -105.000 TC 30 16.9567 -105.058 1 30 11 303
1978266N14260 1978 98 EP MM PAUL 1978-09-24 09:00:00 TS 17.2582 -105.493 main 225 222 P________PP___ EP161978 17.2649 -105.485 TD 30 -1 17.2649 -105.485 TC 30 17.2316 -105.526 1 30 11 298
1978266N14260 1978 98 EP MM PAUL 1978-09-24 12:00:00 TS 17.5000 -106.000 30 hurdat_epa main 228 225 O________OO___ hurdat_epa EP161978 17.5000 -106.000 TD 30 -1 17.5000 -106.000 TC 30 17.5000 -106.000 1 30 11 294
1978266N14260 1978 98 EP MM PAUL 1978-09-24 15:00:00 TS 17.6990 -106.549 main 245 245 P________PP___ EP161978 17.6925 -106.558 TD 30 -1 17.6925 -106.558 TC 30 17.7247 -106.514 1 30 11 292
1978266N14260 1978 98 EP MM PAUL 1978-09-24 18:00:00 TS 17.9095 -107.086 30 hurdat_epa main 276 275 O________OP___ hurdat_epa EP161978 17.9000 -107.100 TD 30 -1 17.9000 -107.100 TC 30 17.9477 -107.031 1 30 11 296
1978266N14260 1978 98 EP MM PAUL 1978-09-24 21:00:00 TS 18.1752 -107.565 main 294 294 P________PP___ EP161978 18.1698 -107.573 TD 30 -1 18.1698 -107.573 TC 30 18.1967 -107.533 1 30 11 304
1978266N14260 1978 98 EP MM PAUL 1978-09-25 00:00:00 TS 18.5000 -108.000 30 hurdat_epa main 311 311 O________OO___ hurdat_epa EP161978 18.5000 -108.000 TD 30 -1 18.5000 -108.000 TC 30 18.5000 -108.000 1 30 11 310
1978266N14260 1978 98 EP MM PAUL 1978-09-25 03:00:00 TS 18.8688 -108.430 main 328 328 P________PP___ EP161978 18.8699 -108.415 TD 30 -1 18.8699 -108.415 TC 30 18.8641 -108.487 1 31 11 316
1978266N14260 1978 98 EP MM PAUL 1978-09-25 06:00:00 TS 19.2975 -108.826 30 hurdat_epa main 346 346 O________OP___ hurdat_epa EP161978 19.3000 -108.800 TD 30 -1 19.3000 -108.800 TC 30 19.2877 -108.928 1 32 12 320
1978266N14260 1978 98 EP MM PAUL 1978-09-25 09:00:00 TS 19.7635 -109.230 main 352 292 P________PP___ EP161978 19.7626 -109.217 TD 32 -1 19.7626 -109.217 TC 32 19.7673 -109.280 1 33 12 328
1978266N14260 1978 98 EP MM PAUL 1978-09-25 12:00:00 TS 20.3000 -109.500 35 hurdat_epa main 292 225 O________OO___ hurdat_epa EP161978 20.3000 -109.500 TS 35 0 20.3000 -109.500 TC 35 20.3000 -109.500 2 35 12 346
1978266N14260 1978 98 EP MM PAUL 1978-09-25 15:00:00 TS 20.9252 -109.532 main 225 161 P________PP___ EP161978 20.9349 -109.525 TS 37 0 20.9349 -109.525 TC 37 20.8863 -109.558 2 36 13 4
1978266N14260 1978 98 EP MM PAUL 1978-09-25 18:00:00 TS 21.5839 -109.416 40 hurdat_epa main 151 93 O________OP___ hurdat_epa EP161978 21.6000 -109.400 TS 40 0 21.6000 -109.400 TC 40 21.5194 -109.482 2 37 13 11
1978266N14260 1978 98 EP MM PAUL 1978-09-25 21:00:00 TS 22.2056 -109.275 main 93 60 P________PP___ EP161978 22.2150 -109.265 TS 40 0 22.2150 -109.265 TC 40 22.1678 -109.314 2 38 13 14
1978266N14260 1978 98 EP MM PAUL 1978-09-26 00:00:00 TS 22.8000 -109.100 40 hurdat_epa main 60 42 O________OO___ hurdat_epa EP161978 22.8000 -109.100 TS 40 0 22.8000 -109.100 TC 40 22.8000 -109.100 2 40 12 14
1978266N14260 1978 98 EP MM PAUL 1978-09-26 03:00:00 TS 23.3643 -108.953 main 40 40 P________PP___ EP161978 23.3574 -108.972 TS 37 0 23.3574 -108.972 TC 37 23.3917 -108.877 2 37 12 15
1978266N14260 1978 98 EP MM PAUL 1978-09-26 06:00:00 TS 23.9075 -108.777 35 hurdat_epa main 78 55 O________OP___ hurdat_epa EP161978 23.9000 -108.800 TS 35 0 23.9000 -108.800 TC 35 23.9478 -108.653 2 35 12 20
1978266N14260 1978 98 EP MM PAUL 1978-09-26 09:00:00 TS 24.4801 -108.499 main 51 20 P________PP___ EP161978 24.4801 -108.508 TS 32 -1 24.4801 -108.508 TC 32 24.4800 -108.427 2 32 12 26
1978266N14260 1978 98 EP MM PAUL 1978-09-26 12:00:00 TS 25.0000 -108.200 30 hurdat_epa main 20 0 O________OO___ hurdat_epa EP161978 25.0000 -108.200 TD 30 -1 25.0000 -108.200 TC 30 25.0000 -108.200 1 30 10 26
1978266N14260 1978 98 EP MM PAUL 1978-09-26 15:00:00 TS 25.4099 -107.992 main 0 0 P________P____ EP161978 25.4099 -107.992 TD 27 -1 25.4099 -107.992 TC 27 1 8 27
1978266N14260 1978 98 EP MM PAUL 1978-09-26 18:00:00 ET 25.7000 -107.800 25 hurdat_epa main 0 0 O________O____ hurdat_epa EP161978 25.7000 -107.800 ET 25 -4 25.7000 -107.800 25 1 6 39
1978266N14260 1978 98 EP MM PAUL 1978-09-26 21:00:00 ET 25.8802 -107.565 main 0 0 P________P____ EP161978 25.8802 -107.565 ET 22 -4 25.8802 -107.565 22 1 5 56
1978266N14260 1978 98 EP MM PAUL 1978-09-27 00:00:00 ET 26.0000 -107.300 20 hurdat_epa main 0 O________O____ hurdat_epa EP161978 26.0000 -107.300 ET 20 -4 26.0000 -107.300 20 5 63

IBTrACS Databaseについて

本データベースは、米国NOAAが公開する1842年以降の世界の熱帯低気圧のベストトラックデータアーカイブInternational Best Track Archive for Climate Stewardship (IBTrACS)を、ウェブで閲覧しやすい形式に変換したものです。

最終更新日:2021-10-21